sensor_id;sensor_type;location;lat;lon;timestamp;pressure;altitude;pressure_sealevel;temperature;humidity
21826;BME280;11075;47.944;11.776;2023-05-09T00:00:45;95087.94;;;7.50;38.76
21826;BME280;11075;47.944;11.776;2023-05-09T00:03:12;95091.53;;;7.76;38.45
21826;BME280;11075;47.944;11.776;2023-05-09T00:05:40;95087.19;;;7.98;38.17
21826;BME280;11075;47.944;11.776;2023-05-09T00:08:07;95080.63;;;7.73;37.92
21826;BME280;11075;47.944;11.776;2023-05-09T00:10:34;95075.88;;;7.70;37.90
21826;BME280;11075;47.944;11.776;2023-05-09T00:13:01;95067.47;;;7.23;38.70
21826;BME280;11075;47.944;11.776;2023-05-09T00:15:28;95084.44;;;7.41;38.60
21826;BME280;11075;47.944;11.776;2023-05-09T00:17:54;95087.22;;;6.69;39.57
21826;BME280;11075;47.944;11.776;2023-05-09T00:20:21;95083.66;;;5.55;41.99
21826;BME280;11075;47.944;11.776;2023-05-09T00:22:48;95082.19;;;5.76;41.44
21826;BME280;11075;47.944;11.776;2023-05-09T00:25:15;95071.88;;;5.83;41.57
21826;BME280;11075;47.944;11.776;2023-05-09T00:27:42;95076.03;;;5.89;40.68
21826;BME280;11075;47.944;11.776;2023-05-09T00:30:10;95067.03;;;5.85;41.25
21826;BME280;11075;47.944;11.776;2023-05-09T00:32:37;95072.75;;;6.06;40.72
21826;BME280;11075;47.944;11.776;2023-05-09T00:35:07;95078.47;;;6.27;40.46
21826;BME280;11075;47.944;11.776;2023-05-09T00:37:34;95070.59;;;5.94;40.56
21826;BME280;11075;47.944;11.776;2023-05-09T00:40:02;95071.13;;;4.34;44.00
21826;BME280;11075;47.944;11.776;2023-05-09T00:42:29;95065.47;;;4.92;42.52
21826;BME280;11075;47.944;11.776;2023-05-09T00:44:56;95054.22;;;4.95;42.42
21826;BME280;11075;47.944;11.776;2023-05-09T00:47:23;95059.28;;;6.11;39.83
21826;BME280;11075;47.944;11.776;2023-05-09T00:49:50;95057.59;;;6.02;39.42
21826;BME280;11075;47.944;11.776;2023-05-09T00:52:17;95060.84;;;6.40;39.01
21826;BME280;11075;47.944;11.776;2023-05-09T00:54:50;95060.63;;;4.94;42.01
21826;BME280;11075;47.944;11.776;2023-05-09T00:57:17;95053.59;;;4.47;42.80
21826;BME280;11075;47.944;11.776;2023-05-09T00:59:45;95058.78;;;5.08;41.13
21826;BME280;11075;47.944;11.776;2023-05-09T01:02:11;95057.78;;;4.15;43.58
21826;BME280;11075;47.944;11.776;2023-05-09T01:04:39;95059.38;;;4.16;43.22
21826;BME280;11075;47.944;11.776;2023-05-09T01:07:15;95054.03;;;4.35;43.20
21826;BME280;11075;47.944;11.776;2023-05-09T01:12:28;95056.16;;;5.22;40.60
21826;BME280;11075;47.944;11.776;2023-05-09T01:17:50;95057.38;;;6.12;38.62
21826;BME280;11075;47.944;11.776;2023-05-09T01:20:38;95040.63;;;5.24;40.18
21826;BME280;11075;47.944;11.776;2023-05-09T01:23:15;95037.16;;;4.58;41.99
21826;BME280;11075;47.944;11.776;2023-05-09T01:31:18;95028.84;;;4.79;40.69
21826;BME280;11075;47.944;11.776;2023-05-09T01:33:48;95038.31;;;4.71;41.00
21826;BME280;11075;47.944;11.776;2023-05-09T01:36:18;95045.38;;;4.81;40.53
21826;BME280;11075;47.944;11.776;2023-05-09T01:38:49;95038.81;;;5.79;38.71
21826;BME280;11075;47.944;11.776;2023-05-09T01:41:18;95041.28;;;5.62;39.32
21826;BME280;11075;47.944;11.776;2023-05-09T01:43:48;95045.44;;;5.68;38.19
21826;BME280;11075;47.944;11.776;2023-05-09T01:46:18;95033.91;;;5.26;39.55
21826;BME280;11075;47.944;11.776;2023-05-09T01:48:47;95030.31;;;5.17;39.13
21826;BME280;11075;47.944;11.776;2023-05-09T01:51:15;95040.78;;;5.87;38.30
21826;BME280;11075;47.944;11.776;2023-05-09T01:53:43;95041.66;;;5.83;38.22
21826;BME280;11075;47.944;11.776;2023-05-09T01:58:41;95038.53;;;6.30;37.23
21826;BME280;11075;47.944;11.776;2023-05-09T02:01:09;95035.50;;;6.10;36.99
21826;BME280;11075;47.944;11.776;2023-05-09T02:03:38;95021.94;;;5.51;38.21
21826;BME280;11075;47.944;11.776;2023-05-09T02:06:06;95016.75;;;5.14;39.43
21826;BME280;11075;47.944;11.776;2023-05-09T02:08:34;95039.28;;;5.95;37.64
21826;BME280;11075;47.944;11.776;2023-05-09T02:11:01;95020.53;;;5.26;37.98
21826;BME280;11075;47.944;11.776;2023-05-09T02:13:28;95030.38;;;5.58;37.92
21826;BME280;11075;47.944;11.776;2023-05-09T02:15:56;95031.25;;;5.95;37.38
21826;BME280;11075;47.944;11.776;2023-05-09T02:18:22;95020.34;;;6.05;37.21
21826;BME280;11075;47.944;11.776;2023-05-09T02:20:50;95023.28;;;6.17;36.60
21826;BME280;11075;47.944;11.776;2023-05-09T02:23:17;95026.97;;;6.57;36.05
21826;BME280;11075;47.944;11.776;2023-05-09T02:25:45;95008.47;;;5.97;37.29
21826;BME280;11075;47.944;11.776;2023-05-09T02:28:12;95015.13;;;5.73;37.49
21826;BME280;11075;47.944;11.776;2023-05-09T02:30:42;95004.25;;;5.55;37.71
21826;BME280;11075;47.944;11.776;2023-05-09T02:33:11;95007.69;;;5.28;37.88
21826;BME280;11075;47.944;11.776;2023-05-09T02:35:43;94981.44;;;4.19;39.92
21826;BME280;11075;47.944;11.776;2023-05-09T02:38:12;94985.13;;;3.38;42.16
21826;BME280;11075;47.944;11.776;2023-05-09T02:40:41;95006.00;;;3.55;41.87
21826;BME280;11075;47.944;11.776;2023-05-09T02:43:09;95005.66;;;3.85;41.16
21826;BME280;11075;47.944;11.776;2023-05-09T02:45:36;95021.88;;;4.07;41.30
21826;BME280;11075;47.944;11.776;2023-05-09T02:48:03;95000.59;;;3.84;41.38
21826;BME280;11075;47.944;11.776;2023-05-09T02:50:34;95008.69;;;3.97;40.56
21826;BME280;11075;47.944;11.776;2023-05-09T02:53:01;95015.50;;;5.25;38.10
21826;BME280;11075;47.944;11.776;2023-05-09T02:55:28;95019.47;;;5.96;37.13
21826;BME280;11075;47.944;11.776;2023-05-09T02:57:55;94995.00;;;5.07;37.90
21826;BME280;11075;47.944;11.776;2023-05-09T03:00:38;94990.88;;;4.82;38.43
21826;BME280;11075;47.944;11.776;2023-05-09T03:03:05;95008.78;;;5.82;36.57
21826;BME280;11075;47.944;11.776;2023-05-09T03:05:32;95003.25;;;5.65;37.17
21826;BME280;11075;47.944;11.776;2023-05-09T03:07:59;94971.47;;;4.44;39.17
21826;BME280;11075;47.944;11.776;2023-05-09T03:10:26;95006.19;;;5.36;37.58
21826;BME280;11075;47.944;11.776;2023-05-09T03:12:53;94998.41;;;5.67;36.51
21826;BME280;11075;47.944;11.776;2023-05-09T03:15:20;94969.22;;;4.83;38.60
21826;BME280;11075;47.944;11.776;2023-05-09T03:17:47;94982.72;;;5.06;37.52
21826;BME280;11075;47.944;11.776;2023-05-09T03:20:14;94987.28;;;5.05;36.93
21826;BME280;11075;47.944;11.776;2023-05-09T03:22:41;95000.56;;;5.24;36.71
21826;BME280;11075;47.944;11.776;2023-05-09T03:25:10;94996.72;;;5.57;35.96
21826;BME280;11075;47.944;11.776;2023-05-09T03:27:37;94973.13;;;5.04;37.60
21826;BME280;11075;47.944;11.776;2023-05-09T03:30:08;94987.50;;;5.50;36.50
21826;BME280;11075;47.944;11.776;2023-05-09T03:32:35;94989.28;;;5.41;36.36
21826;BME280;11075;47.944;11.776;2023-05-09T03:35:02;94959.97;;;4.11;38.68
21826;BME280;11075;47.944;11.776;2023-05-09T03:37:31;94943.00;;;3.21;40.47
21826;BME280;11075;47.944;11.776;2023-05-09T03:39:57;94971.19;;;3.46;40.43
21826;BME280;11075;47.944;11.776;2023-05-09T03:42:25;94972.41;;;3.35;41.20
21826;BME280;11075;47.944;11.776;2023-05-09T03:44:57;94985.47;;;4.17;39.57
21826;BME280;11075;47.944;11.776;2023-05-09T03:47:24;94984.94;;;4.52;38.36
21826;BME280;11075;47.944;11.776;2023-05-09T03:49:51;94986.22;;;4.74;37.61
21826;BME280;11075;47.944;11.776;2023-05-09T03:52:21;94999.28;;;5.35;37.00
21826;BME280;11075;47.944;11.776;2023-05-09T03:54:48;94982.03;;;4.67;37.55
21826;BME280;11075;47.944;11.776;2023-05-09T03:57:16;94999.91;;;5.59;36.17
21826;BME280;11075;47.944;11.776;2023-05-09T03:59:44;94989.88;;;5.38;36.54
21826;BME280;11075;47.944;11.776;2023-05-09T04:02:13;94995.63;;;5.72;35.66
21826;BME280;11075;47.944;11.776;2023-05-09T04:04:41;94979.34;;;5.00;36.93
21826;BME280;11075;47.944;11.776;2023-05-09T04:07:08;94955.44;;;4.44;38.19
21826;BME280;11075;47.944;11.776;2023-05-09T04:09:36;94954.84;;;3.10;40.61
21826;BME280;11075;47.944;11.776;2023-05-09T04:12:02;94966.41;;;2.71;41.96
21826;BME280;11075;47.944;11.776;2023-05-09T04:14:29;94998.66;;;4.64;37.94
21826;BME280;11075;47.944;11.776;2023-05-09T04:16:57;94999.34;;;5.02;37.04
21826;BME280;11075;47.944;11.776;2023-05-09T04:19:23;95005.31;;;5.82;36.20
21826;BME280;11075;47.944;11.776;2023-05-09T04:21:50;94978.69;;;4.43;38.16
21826;BME280;11075;47.944;11.776;2023-05-09T04:24:17;94997.69;;;5.34;36.85
21826;BME280;11075;47.944;11.776;2023-05-09T04:26:47;94983.72;;;5.10;37.25
21826;BME280;11075;47.944;11.776;2023-05-09T04:29:17;94960.25;;;3.90;39.89
21826;BME280;11075;47.944;11.776;2023-05-09T04:31:49;94976.66;;;3.36;41.75
21826;BME280;11075;47.944;11.776;2023-05-09T04:34:17;94994.69;;;4.05;40.20
21826;BME280;11075;47.944;11.776;2023-05-09T04:36:44;94963.94;;;3.52;41.79
21826;BME280;11075;47.944;11.776;2023-05-09T04:39:11;94988.88;;;4.03;40.72
21826;BME280;11075;47.944;11.776;2023-05-09T04:41:46;94990.47;;;4.75;39.54
21826;BME280;11075;47.944;11.776;2023-05-09T04:44:15;94993.50;;;5.14;39.37
21826;BME280;11075;47.944;11.776;2023-05-09T04:46:42;94992.63;;;6.01;37.61
21826;BME280;11075;47.944;11.776;2023-05-09T04:49:09;94977.09;;;5.21;39.31
21826;BME280;11075;47.944;11.776;2023-05-09T04:51:36;94979.00;;;5.75;38.46
21826;BME280;11075;47.944;11.776;2023-05-09T04:54:03;94973.06;;;5.64;38.79
21826;BME280;11075;47.944;11.776;2023-05-09T04:56:33;94962.44;;;5.04;40.23
21826;BME280;11075;47.944;11.776;2023-05-09T04:59:00;94973.03;;;5.92;39.22
21826;BME280;11075;47.944;11.776;2023-05-09T05:01:28;94963.56;;;5.58;40.07
21826;BME280;11075;47.944;11.776;2023-05-09T05:03:55;94955.09;;;5.92;38.98
21826;BME280;11075;47.944;11.776;2023-05-09T05:06:22;94954.81;;;5.80;39.25
21826;BME280;11075;47.944;11.776;2023-05-09T05:08:49;94964.88;;;6.78;37.99
21826;BME280;11075;47.944;11.776;2023-05-09T05:11:16;94941.97;;;5.68;40.08
21826;BME280;11075;47.944;11.776;2023-05-09T05:13:47;94964.72;;;7.05;37.84
21826;BME280;11075;47.944;11.776;2023-05-09T05:16:14;94946.25;;;7.26;37.86
21826;BME280;11075;47.944;11.776;2023-05-09T05:18:41;94950.03;;;7.34;37.66
21826;BME280;11075;47.944;11.776;2023-05-09T05:21:08;94962.72;;;8.33;35.92
21826;BME280;11075;47.944;11.776;2023-05-09T05:23:35;94957.47;;;8.63;36.39
21826;BME280;11075;47.944;11.776;2023-05-09T05:26:02;94975.81;;;9.71;34.61
21826;BME280;11075;47.944;11.776;2023-05-09T05:28:31;94952.47;;;9.16;35.47
21826;BME280;11075;47.944;11.776;2023-05-09T05:30:58;94941.84;;;8.56;36.79
21826;BME280;11075;47.944;11.776;2023-05-09T05:33:24;94922.59;;;6.97;39.34
21826;BME280;11075;47.944;11.776;2023-05-09T05:35:52;94949.09;;;8.64;36.69
21826;BME280;11075;47.944;11.776;2023-05-09T05:38:20;94970.94;;;9.27;34.70
21826;BME280;11075;47.944;11.776;2023-05-09T05:40:51;94963.34;;;9.29;35.35
21826;BME280;11075;47.944;11.776;2023-05-09T05:43:19;94970.81;;;10.11;34.60
21826;BME280;11075;47.944;11.776;2023-05-09T05:45:47;94963.63;;;10.45;33.94
21826;BME280;11075;47.944;11.776;2023-05-09T05:48:17;94961.91;;;10.20;33.59
21826;BME280;11075;47.944;11.776;2023-05-09T05:50:45;94934.91;;;8.29;36.12
21826;BME280;11075;47.944;11.776;2023-05-09T05:53:14;94984.41;;;10.15;33.23
21826;BME280;11075;47.944;11.776;2023-05-09T05:55:42;94962.59;;;9.58;34.82
21826;BME280;11075;47.944;11.776;2023-05-09T05:58:11;94970.19;;;10.35;33.51
21826;BME280;11075;47.944;11.776;2023-05-09T06:00:38;94952.94;;;9.86;33.95
21826;BME280;11075;47.944;11.776;2023-05-09T06:03:07;94954.53;;;10.70;34.11
21826;BME280;11075;47.944;11.776;2023-05-09T06:06:03;94935.19;;;9.64;35.11
21826;BME280;11075;47.944;11.776;2023-05-09T06:08:30;94968.63;;;11.46;32.05
21826;BME280;11075;47.944;11.776;2023-05-09T06:11:00;94976.94;;;12.26;31.85
21826;BME280;11075;47.944;11.776;2023-05-09T06:13:27;94906.59;;;9.80;35.54
21826;BME280;11075;47.944;11.776;2023-05-09T06:15:59;94961.56;;;12.02;31.39
21826;BME280;11075;47.944;11.776;2023-05-09T06:18:43;94909.16;;;11.05;34.10
21826;BME280;11075;47.944;11.776;2023-05-09T06:21:10;94918.50;;;10.21;34.20
21826;BME280;11075;47.944;11.776;2023-05-09T06:23:38;94939.47;;;12.12;32.33
21826;BME280;11075;47.944;11.776;2023-05-09T06:26:22;94903.88;;;10.64;33.91
21826;BME280;11075;47.944;11.776;2023-05-09T06:28:49;94918.78;;;12.04;32.69
21826;BME280;11075;47.944;11.776;2023-05-09T06:31:16;94937.22;;;12.82;31.35
21826;BME280;11075;47.944;11.776;2023-05-09T06:33:43;94937.09;;;12.35;31.91
21826;BME280;11075;47.944;11.776;2023-05-09T06:36:10;94960.94;;;13.48;30.53
21826;BME280;11075;47.944;11.776;2023-05-09T06:38:37;94906.63;;;10.88;33.41
21826;BME280;11075;47.944;11.776;2023-05-09T06:41:04;94922.25;;;12.57;32.07
21826;BME280;11075;47.944;11.776;2023-05-09T06:43:31;94878.22;;;10.45;34.68
21826;BME280;11075;47.944;11.776;2023-05-09T06:45:58;94932.91;;;13.56;30.95
21826;BME280;11075;47.944;11.776;2023-05-09T06:48:25;94931.13;;;13.95;30.26
21826;BME280;11075;47.944;11.776;2023-05-09T06:50:52;94907.09;;;13.43;31.79
21826;BME280;11075;47.944;11.776;2023-05-09T06:53:19;94893.31;;;13.32;32.32
21826;BME280;11075;47.944;11.776;2023-05-09T06:55:46;94897.72;;;12.93;31.84
21826;BME280;11075;47.944;11.776;2023-05-09T06:58:13;94902.38;;;13.09;31.37
21826;BME280;11075;47.944;11.776;2023-05-09T07:00:40;94899.50;;;13.64;31.26
21826;BME280;11075;47.944;11.776;2023-05-09T07:03:08;94860.16;;;11.52;33.80
21826;BME280;11075;47.944;11.776;2023-05-09T07:05:36;94882.13;;;13.34;32.42
21826;BME280;11075;47.944;11.776;2023-05-09T07:08:03;94902.66;;;13.35;31.25
21826;BME280;11075;47.944;11.776;2023-05-09T07:10:30;94919.75;;;15.25;29.50
21826;BME280;11075;47.944;11.776;2023-05-09T07:12:57;94890.25;;;13.34;31.90
21826;BME280;11075;47.944;11.776;2023-05-09T07:15:24;94922.47;;;15.02;29.77
21826;BME280;11075;47.944;11.776;2023-05-09T07:18:07;94895.88;;;14.88;30.37
21826;BME280;11075;47.944;11.776;2023-05-09T07:20:34;94881.09;;;13.39;31.87
21826;BME280;11075;47.944;11.776;2023-05-09T07:23:02;94894.13;;;15.00;30.15
21826;BME280;11075;47.944;11.776;2023-05-09T07:25:29;94867.34;;;13.98;31.82
21826;BME280;11075;47.944;11.776;2023-05-09T07:27:56;94864.34;;;13.84;32.58
21826;BME280;11075;47.944;11.776;2023-05-09T07:30:23;94868.84;;;13.60;32.04
21826;BME280;11075;47.944;11.776;2023-05-09T07:32:51;94894.72;;;15.84;29.66
21826;BME280;11075;47.944;11.776;2023-05-09T07:35:19;94863.22;;;14.62;30.88
21826;BME280;11075;47.944;11.776;2023-05-09T07:37:46;94846.78;;;15.69;31.24
21826;BME280;11075;47.944;11.776;2023-05-09T07:40:13;94850.25;;;14.52;31.63
21826;BME280;11075;47.944;11.776;2023-05-09T07:42:41;94844.09;;;14.55;31.63
21826;BME280;11075;47.944;11.776;2023-05-09T07:45:11;94874.44;;;16.05;30.06
21826;BME280;11075;47.944;11.776;2023-05-09T07:47:38;94878.81;;;16.76;29.11
21826;BME280;11075;47.944;11.776;2023-05-09T07:50:06;94870.75;;;16.53;28.87
21826;BME280;11075;47.944;11.776;2023-05-09T07:52:34;94843.78;;;15.78;30.53
21826;BME280;11075;47.944;11.776;2023-05-09T07:55:00;94874.53;;;18.29;27.63
21826;BME280;11075;47.944;11.776;2023-05-09T07:57:27;94829.16;;;15.86;30.53
21826;BME280;11075;47.944;11.776;2023-05-09T07:59:54;94813.34;;;16.25;31.22
21826;BME280;11075;47.944;11.776;2023-05-09T08:02:21;94831.38;;;15.77;29.80
21826;BME280;11075;47.944;11.776;2023-05-09T08:04:49;94837.06;;;16.28;29.53
21826;BME280;11075;47.944;11.776;2023-05-09T08:07:15;94865.16;;;16.73;28.66
21826;BME280;11075;47.944;11.776;2023-05-09T08:09:42;94819.66;;;15.73;30.19
21826;BME280;11075;47.944;11.776;2023-05-09T08:12:09;94820.81;;;17.09;30.28
21826;BME280;11075;47.944;11.776;2023-05-09T08:14:36;94784.41;;;16.06;31.56
21826;BME280;11075;47.944;11.776;2023-05-09T08:17:04;94802.75;;;17.38;29.91
21826;BME280;11075;47.944;11.776;2023-05-09T08:19:30;94847.44;;;17.85;27.43
21826;BME280;11075;47.944;11.776;2023-05-09T08:21:57;94786.25;;;16.32;30.96
21826;BME280;11075;47.944;11.776;2023-05-09T08:24:24;94835.00;;;17.88;28.23
21826;BME280;11075;47.944;11.776;2023-05-09T08:26:51;94823.53;;;18.37;27.80
21826;BME280;11075;47.944;11.776;2023-05-09T08:29:19;94819.25;;;18.36;27.78
21826;BME280;11075;47.944;11.776;2023-05-09T08:31:46;94815.00;;;18.56;27.91
21826;BME280;11075;47.944;11.776;2023-05-09T08:34:13;94748.78;;;16.96;31.75
21826;BME280;11075;47.944;11.776;2023-05-09T08:36:39;94801.50;;;17.84;28.85
21826;BME280;11075;47.944;11.776;2023-05-09T08:39:06;94800.69;;;17.76;28.69
21826;BME280;11075;47.944;11.776;2023-05-09T08:41:35;94803.75;;;19.61;27.83
21826;BME280;11075;47.944;11.776;2023-05-09T08:44:03;94811.44;;;18.34;27.49
21826;BME280;11075;47.944;11.776;2023-05-09T08:46:35;94786.56;;;17.63;29.03
21826;BME280;11075;47.944;11.776;2023-05-09T08:49:04;94793.56;;;18.40;27.90
21826;BME280;11075;47.944;11.776;2023-05-09T08:51:34;94816.56;;;18.54;26.14
21826;BME280;11075;47.944;11.776;2023-05-09T08:54:01;94765.69;;;17.85;29.08
21826;BME280;11075;47.944;11.776;2023-05-09T08:56:31;94806.66;;;20.38;25.91
21826;BME280;11075;47.944;11.776;2023-05-09T08:59:00;94785.06;;;20.57;26.90
21826;BME280;11075;47.944;11.776;2023-05-09T09:01:27;94768.31;;;19.04;28.22
21826;BME280;11075;47.944;11.776;2023-05-09T09:03:55;94765.50;;;18.51;28.31
21826;BME280;11075;47.944;11.776;2023-05-09T09:06:22;94756.16;;;17.51;28.38
21826;BME280;11075;47.944;11.776;2023-05-09T09:08:53;94764.06;;;17.73;28.40
21826;BME280;11075;47.944;11.776;2023-05-09T09:11:22;94737.09;;;19.33;29.06
21826;BME280;11075;47.944;11.776;2023-05-09T09:13:53;94768.13;;;20.03;27.03
21826;BME280;11075;47.944;11.776;2023-05-09T09:16:24;94781.78;;;20.77;25.47
21826;BME280;11075;47.944;11.776;2023-05-09T09:18:53;94774.53;;;20.52;25.66
21826;BME280;11075;47.944;11.776;2023-05-09T09:21:24;94750.91;;;20.76;26.26
21826;BME280;11075;47.944;11.776;2023-05-09T09:23:54;94744.94;;;20.33;26.88
21826;BME280;11075;47.944;11.776;2023-05-09T09:26:22;94739.38;;;19.53;26.49
21826;BME280;11075;47.944;11.776;2023-05-09T09:28:50;94749.50;;;21.50;25.03
21826;BME280;11075;47.944;11.776;2023-05-09T09:31:24;94738.59;;;19.49;26.06
21826;BME280;11075;47.944;11.776;2023-05-09T09:34:00;94719.47;;;19.49;26.91
21826;BME280;11075;47.944;11.776;2023-05-09T09:36:28;94752.47;;;21.25;25.26
21826;BME280;11075;47.944;11.776;2023-05-09T09:38:58;94788.78;;;23.00;22.83
21826;BME280;11075;47.944;11.776;2023-05-09T09:41:36;94770.59;;;22.25;23.27
21826;BME280;11075;47.944;11.776;2023-05-09T09:44:11;94771.81;;;23.95;21.83
21826;BME280;11075;47.944;11.776;2023-05-09T09:46:52;94802.88;;;26.43;19.77
21826;BME280;11075;47.944;11.776;2023-05-09T09:49:21;94805.34;;;27.17;19.05
21826;BME280;11075;47.944;11.776;2023-05-09T09:51:55;94758.63;;;23.43;21.71
21826;BME280;11075;47.944;11.776;2023-05-09T09:54:26;94784.13;;;26.88;19.70
21826;BME280;11075;47.944;11.776;2023-05-09T09:56:54;94798.41;;;27.59;18.24
21826;BME280;11075;47.944;11.776;2023-05-09T09:59:24;94758.25;;;26.02;19.66
21826;BME280;11075;47.944;11.776;2023-05-09T10:02:03;94714.66;;;25.23;21.88
21826;BME280;11075;47.944;11.776;2023-05-09T10:04:35;94761.34;;;26.59;19.80
21826;BME280;11075;47.944;11.776;2023-05-09T10:07:07;94723.53;;;24.10;21.91
21826;BME280;11075;47.944;11.776;2023-05-09T10:09:40;94709.25;;;22.66;22.14
21826;BME280;11075;47.944;11.776;2023-05-09T10:12:07;94711.81;;;24.94;20.96
21826;BME280;11075;47.944;11.776;2023-05-09T10:14:35;94714.41;;;25.92;20.95
21826;BME280;11075;47.944;11.776;2023-05-09T10:17:04;94725.53;;;26.68;19.94
21826;BME280;11075;47.944;11.776;2023-05-09T10:19:32;94740.75;;;27.92;19.09
21826;BME280;11075;47.944;11.776;2023-05-09T10:22:04;94717.16;;;26.84;20.44
21826;BME280;11075;47.944;11.776;2023-05-09T10:24:47;94745.53;;;26.72;18.41
21826;BME280;11075;47.944;11.776;2023-05-09T10:27:18;94739.88;;;29.38;17.89
21826;BME280;11075;47.944;11.776;2023-05-09T10:30:27;94696.47;;;25.84;20.24
21826;BME280;11075;47.944;11.776;2023-05-09T10:33:02;94666.41;;;26.02;21.01
21826;BME280;11075;47.944;11.776;2023-05-09T10:35:34;94664.56;;;24.96;21.17
21826;BME280;11075;47.944;11.776;2023-05-09T10:38:02;94672.59;;;27.86;19.52
21826;BME280;11075;47.944;11.776;2023-05-09T10:40:30;94659.06;;;27.10;20.13
21826;BME280;11075;47.944;11.776;2023-05-09T10:42:57;94695.50;;;29.65;17.94
21826;BME280;11075;47.944;11.776;2023-05-09T10:45:26;94647.66;;;27.20;20.31
21826;BME280;11075;47.944;11.776;2023-05-09T10:47:53;94668.41;;;26.90;19.00
21826;BME280;11075;47.944;11.776;2023-05-09T10:50:22;94656.63;;;24.33;20.62
21826;BME280;11075;47.944;11.776;2023-05-09T10:53:19;94623.97;;;23.99;22.09
21826;BME280;11075;47.944;11.776;2023-05-09T10:55:54;94633.38;;;25.15;21.16
21826;BME280;11075;47.944;11.776;2023-05-09T10:58:28;94624.91;;;26.18;20.57
21826;BME280;11075;47.944;11.776;2023-05-09T11:00:57;94633.13;;;26.94;20.07
21826;BME280;11075;47.944;11.776;2023-05-09T11:03:25;94647.78;;;27.60;19.35
21826;BME280;11075;47.944;11.776;2023-05-09T11:05:55;94645.63;;;26.74;19.30
21826;BME280;11075;47.944;11.776;2023-05-09T11:08:23;94634.41;;;26.17;19.67
21826;BME280;11075;47.944;11.776;2023-05-09T11:10:52;94646.47;;;25.40;19.45
21826;BME280;11075;47.944;11.776;2023-05-09T11:13:21;94641.81;;;27.06;19.26
21826;BME280;11075;47.944;11.776;2023-05-09T11:18:23;94593.47;;;22.94;21.58
21826;BME280;11075;47.944;11.776;2023-05-09T11:20:51;94620.88;;;25.39;19.20
21826;BME280;11075;47.944;11.776;2023-05-09T11:23:19;94552.47;;;24.31;22.74
21826;BME280;11075;47.944;11.776;2023-05-09T11:25:48;94594.03;;;25.56;20.02
21826;BME280;11075;47.944;11.776;2023-05-09T11:28:30;94541.13;;;22.81;23.21
21826;BME280;11075;47.944;11.776;2023-05-09T11:31:16;94606.50;;;26.88;18.76
21826;BME280;11075;47.944;11.776;2023-05-09T11:33:45;94540.13;;;22.02;23.48
21826;BME280;11075;47.944;11.776;2023-05-09T11:36:32;94585.13;;;28.87;18.73
21826;BME280;11075;47.944;11.776;2023-05-09T11:39:05;94530.88;;;24.30;22.10
21826;BME280;11075;47.944;11.776;2023-05-09T11:41:41;94527.13;;;25.94;20.78
21826;BME280;11075;47.944;11.776;2023-05-09T11:44:16;94556.59;;;26.70;19.54
21826;BME280;11075;47.944;11.776;2023-05-09T11:46:44;94538.78;;;24.89;21.18
21826;BME280;11075;47.944;11.776;2023-05-09T11:49:12;94529.50;;;25.54;20.84
21826;BME280;11075;47.944;11.776;2023-05-09T11:51:39;94519.09;;;24.29;21.67
21826;BME280;11075;47.944;11.776;2023-05-09T11:54:07;94498.09;;;22.75;23.56
21826;BME280;11075;47.944;11.776;2023-05-09T11:56:36;94524.72;;;24.71;21.40
21826;BME280;11075;47.944;11.776;2023-05-09T11:59:03;94488.56;;;23.19;22.65
21826;BME280;11075;47.944;11.776;2023-05-09T12:01:30;94516.59;;;25.51;21.02
21826;BME280;11075;47.944;11.776;2023-05-09T12:03:57;94508.59;;;23.00;21.33
21826;BME280;11075;47.944;11.776;2023-05-09T12:06:25;94492.00;;;22.87;22.94
21826;BME280;11075;47.944;11.776;2023-05-09T12:08:54;94506.91;;;24.75;21.44
21826;BME280;11075;47.944;11.776;2023-05-09T12:11:23;94480.19;;;22.67;23.36
21826;BME280;11075;47.944;11.776;2023-05-09T12:13:51;94450.06;;;19.06;25.82
21826;BME280;11075;47.944;11.776;2023-05-09T12:16:18;94470.84;;;24.08;21.82
21826;BME280;11075;47.944;11.776;2023-05-09T12:18:49;94480.41;;;23.15;22.85
21826;BME280;11075;47.944;11.776;2023-05-09T12:21:18;94437.47;;;20.23;25.23
21826;BME280;11075;47.944;11.776;2023-05-09T12:23:45;94470.72;;;24.44;21.79
21826;BME280;11075;47.944;11.776;2023-05-09T12:26:16;94452.47;;;22.18;23.29
21826;BME280;11075;47.944;11.776;2023-05-09T12:28:44;94454.97;;;21.85;22.85
21826;BME280;11075;47.944;11.776;2023-05-09T12:31:11;94496.13;;;24.81;20.68
21826;BME280;11075;47.944;11.776;2023-05-09T12:33:39;94463.38;;;23.24;22.38
21826;BME280;11075;47.944;11.776;2023-05-09T12:36:09;94419.91;;;20.58;24.00
21826;BME280;11075;47.944;11.776;2023-05-09T12:38:37;94418.22;;;22.26;23.68
21826;BME280;11075;47.944;11.776;2023-05-09T12:41:09;94409.31;;;21.99;24.51
21826;BME280;11075;47.944;11.776;2023-05-09T12:43:57;94457.53;;;24.23;21.11
21826;BME280;11075;47.944;11.776;2023-05-09T12:46:24;94441.41;;;20.94;22.91
21826;BME280;11075;47.944;11.776;2023-05-09T12:48:53;94422.03;;;20.78;24.17
21826;BME280;11075;47.944;11.776;2023-05-09T12:51:20;94410.66;;;20.79;23.62
21826;BME280;11075;47.944;11.776;2023-05-09T12:53:47;94406.28;;;22.56;23.76
21826;BME280;11075;47.944;11.776;2023-05-09T12:56:17;94444.19;;;21.98;22.24
21826;BME280;11075;47.944;11.776;2023-05-09T12:58:51;94422.16;;;22.25;22.56
21826;BME280;11075;47.944;11.776;2023-05-09T13:01:21;94397.53;;;19.47;24.68
21826;BME280;11075;47.944;11.776;2023-05-09T13:03:52;94401.91;;;21.72;23.67
21826;BME280;11075;47.944;11.776;2023-05-09T13:06:25;94411.53;;;22.27;22.71
21826;BME280;11075;47.944;11.776;2023-05-09T13:09:02;94388.47;;;21.04;23.71
21826;BME280;11075;47.944;11.776;2023-05-09T13:11:31;94406.56;;;22.42;22.68
21826;BME280;11075;47.944;11.776;2023-05-09T13:13:59;94390.69;;;22.53;23.22
21826;BME280;11075;47.944;11.776;2023-05-09T13:16:28;94364.34;;;22.55;24.11
21826;BME280;11075;47.944;11.776;2023-05-09T13:18:54;94369.16;;;21.88;23.72
21826;BME280;11075;47.944;11.776;2023-05-09T13:21:22;94342.97;;;22.47;24.54